Time,TemperatureF,DewpointF,PressureIn,WindDirection,WindDirectionDegrees,WindSpeedMPH,WindSpeedGustMPH,Humidity,HourlyPrecipIn,Conditions,Clouds,dailyrainin,SoftwareType,DateUTC
2013-06-20 00:00:00,57.2,53.1,30.13,West,262,0.0,0.0,86,0.00,,CLR,0.00,VWS V14.01,2013-06-20 04:00:00,
2013-06-20 00:01:00,57.1,53.0,30.13,West,261,0.0,0.0,86,0.00,,CLR,0.00,VWS V14.01,2013-06-20 04:01:00,
2013-06-20 00:06:00,56.8,51.7,30.13,West,262,0.0,0.0,83,0.00,,CLR,0.00,VWS V14.01,2013-06-20 04:06:00,
2013-06-20 00:11:00,56.6,51.2,30.12,West,262,0.0,0.0,82,0.00,,CLR,0.00,VWS V14.01,2013-06-20 04:11:00,
2013-06-20 00:16:00,56.5,50.8,30.13,West,262,0.0,0.0,81,0.00,,CLR,0.00,VWS V14.01,2013-06-20 04:16:00,
2013-06-20 00:21:00,56.5,50.4,30.13,West,262,0.0,0.0,80,0.00,,CLR,0.00,VWS V14.01,2013-06-20 04:21:00,
2013-06-20 00:26:00,56.5,50.8,30.13,West,261,0.0,0.0,81,0.00,,CLR,0.00,VWS V14.01,2013-06-20 04:26:00,
2013-06-20 00:31:00,56.6,51.8,30.13,West,259,0.0,0.0,84,0.00,,CLR,0.00,VWS V14.01,2013-06-20 04:31:00,
2013-06-20 00:36:00,56.8,53.0,30.13,West,259,0.0,0.0,87,0.00,,CLR,0.00,VWS V14.01,2013-06-20 04:36:00,
2013-06-20 00:41:00,56.8,53.3,30.13,West,259,0.0,0.0,88,0.00,,CLR,0.00,VWS V14.01,2013-06-20 04:41:00,
2013-06-20 00:46:00,56.5,53.0,30.13,West,259,0.0,0.0,88,0.00,,CLR,0.00,VWS V14.01,2013-06-20 04:46:00,
2013-06-20 00:51:00,56.0,51.6,30.13,West,259,0.0,0.0,85,0.00,,CLR,0.00,VWS V14.01,2013-06-20 04:51:00,
2013-06-20 00:56:00,55.6,50.2,30.13,West,260,0.0,0.0,82,0.00,,CLR,0.00,VWS V14.01,2013-06-20 04:56:00,
2013-06-20 01:01:00,55.6,50.2,30.14,West,259,0.0,0.0,82,0.00,,CLR,0.00,VWS V14.01,2013-06-20 05:01:00,
2013-06-20 01:06:00,55.8,51.4,30.13,West,259,0.0,0.0,85,0.00,,CLR,0.00,VWS V14.01,2013-06-20 05:06:00,
2013-06-20 01:11:00,55.7,51.9,30.13,West,260,0.0,0.0,87,0.00,,CLR,0.00,VWS V14.01,2013-06-20 05:11:00,
2013-06-20 01:16:00,55.4,51.6,30.14,West,259,0.0,0.0,87,0.00,,CLR,0.00,VWS V14.01,2013-06-20 05:16:00,
2013-06-20 01:21:00,55.3,52.4,30.14,West,259,0.0,0.0,90,0.00,,CLR,0.00,VWS V14.01,2013-06-20 05:21:00,
2013-06-20 01:26:00,55.3,52.7,30.14,West,259,0.0,0.0,91,0.00,,CLR,0.00,VWS V14.01,2013-06-20 05:26:00,
2013-06-20 01:31:00,55.0,52.4,30.14,West,260,0.0,0.0,91,0.00,,CLR,0.00,VWS V14.01,2013-06-20 05:31:00,
2013-06-20 01:36:00,54.7,51.8,30.14,West,260,0.0,0.0,90,0.00,,CLR,0.00,VWS V14.01,2013-06-20 05:36:00,
2013-06-20 01:41:00,54.5,51.3,30.14,West,259,0.0,0.0,89,0.00,,CLR,0.00,VWS V14.01,2013-06-20 05:41:00,
2013-06-20 01:46:00,54.5,51.0,30.14,West,259,0.0,0.0,88,0.00,,CLR,0.00,VWS V14.01,2013-06-20 05:46:00,
2013-06-20 01:51:00,54.5,51.3,30.14,West,259,0.0,0.0,89,0.00,,CLR,0.00,VWS V14.01,2013-06-20 05:51:00,
2013-06-20 01:56:00,54.5,51.3,30.14,West,259,0.0,0.0,89,0.00,,CLR,0.00,VWS V14.01,2013-06-20 05:56:00,
2013-06-20 02:01:00,54.5,51.6,30.13,West,259,0.0,0.0,90,0.00,,CLR,0.00,VWS V14.01,2013-06-20 06:01:00,
2013-06-20 02:06:00,54.5,51.6,30.14,West,259,0.0,0.0,90,0.00,,CLR,0.00,VWS V14.01,2013-06-20 06:06:00,
2013-06-20 02:11:00,54.4,51.8,30.14,West,259,0.0,0.0,91,0.00,,CLR,0.00,VWS V14.01,2013-06-20 06:11:00,
2013-06-20 02:16:00,54.2,51.6,30.14,West,259,0.0,0.0,91,0.00,,CLR,0.00,VWS V14.01,2013-06-20 06:16:00,
2013-06-20 02:21:00,54.3,51.7,30.14,West,259,0.0,0.0,91,0.00,,CLR,0.00,VWS V14.01,2013-06-20 06:21:00,
2013-06-20 02:26:00,54.2,51.6,30.14,West,259,0.0,0.0,91,0.00,,CLR,0.00,VWS V14.01,2013-06-20 06:26:00,
2013-06-20 02:31:00,54.0,51.4,30.14,West,259,0.0,0.0,91,0.00,,CLR,0.00,VWS V14.01,2013-06-20 06:31:00,
2013-06-20 02:36:00,53.9,51.3,30.15,West,259,0.0,0.0,91,0.00,,CLR,0.00,VWS V14.01,2013-06-20 06:36:00,
2013-06-20 02:41:00,53.7,51.4,30.15,West,259,0.0,0.0,92,0.00,,CLR,0.00,VWS V14.01,2013-06-20 06:41:00,
2013-06-20 02:46:00,53.5,51.2,30.15,West,259,0.0,0.0,92,0.00,,CLR,0.00,VWS V14.01,2013-06-20 06:46:00,
2013-06-20 02:51:00,53.4,51.1,30.15,West,259,0.0,0.0,92,0.00,,CLR,0.00,VWS V14.01,2013-06-20 06:51:00,
2013-06-20 02:56:00,53.3,51.0,30.15,West,259,0.0,0.0,92,0.00,,CLR,0.00,VWS V14.01,2013-06-20 06:56:00,
2013-06-20 03:01:00,53.2,50.9,30.15,West,259,0.0,0.0,92,0.00,,CLR,0.00,VWS V14.01,2013-06-20 07:01:00,
2013-06-20 03:06:00,53.2,50.9,30.15,West,259,0.0,0.0,92,0.00,,CLR,0.00,VWS V14.01,2013-06-20 07:06:00,
2013-06-20 03:11:00,53.1,50.8,30.15,West,259,0.0,0.0,92,0.00,,CLR,0.00,VWS V14.01,2013-06-20 07:11:00,
2013-06-20 03:16:00,52.9,50.6,30.15,West,259,0.0,0.0,92,0.00,,CLR,0.00,VWS V14.01,2013-06-20 07:16:00,
2013-06-20 03:21:00,52.7,50.5,30.15,West,259,0.0,0.0,92,0.00,,CLR,0.00,VWS V14.01,2013-06-20 07:21:00,
2013-06-20 03:26:00,52.5,50.2,30.15,West,259,0.0,0.0,92,0.00,,CLR,0.00,VWS V14.01,2013-06-20 07:26:00,
2013-06-20 03:31:00,52.5,50.2,30.15,West,259,0.0,0.0,92,0.00,,CLR,0.00,VWS V14.01,2013-06-20 07:31:00,
2013-06-20 03:36:00,52.5,50.2,30.15,West,259,0.0,0.0,92,0.00,,CLR,0.00,VWS V14.01,2013-06-20 07:36:00,
2013-06-20 03:41:00,52.6,50.3,30.15,West,259,0.0,0.0,92,0.00,,CLR,0.00,VWS V14.01,2013-06-20 07:41:00,
2013-06-20 03:46:00,52.4,50.2,30.15,West,259,0.0,0.0,92,0.00,,CLR,0.00,VWS V14.01,2013-06-20 07:46:00,
2013-06-20 03:51:00,52.5,50.2,30.15,West,259,0.0,0.0,92,0.00,,CLR,0.00,VWS V14.01,2013-06-20 07:51:00,
2013-06-20 03:56:00,52.4,50.2,30.16,West,259,0.0,0.0,92,0.00,,CLR,0.00,VWS V14.01,2013-06-20 07:56:00,
2013-06-20 04:01:00,52.2,50.0,30.16,West,259,0.0,0.0,92,0.00,,CLR,0.00,VWS V14.01,2013-06-20 08:01:00,
2013-06-20 04:06:00,52.1,49.8,30.16,West,267,0.0,0.0,92,0.00,,CLR,0.00,VWS V14.01,2013-06-20 08:06:00,
2013-06-20 04:11:00,51.9,49.7,30.16,West,267,0.0,0.0,92,0.00,,CLR,0.00,VWS V14.01,2013-06-20 08:11:00,
2013-06-20 04:16:00,51.9,49.7,30.16,West,267,0.0,0.0,92,0.00,,CLR,0.00,VWS V14.01,2013-06-20 08:16:00,
2013-06-20 04:21:00,51.9,49.7,30.16,West,267,0.0,0.0,92,0.00,,CLR,0.00,VWS V14.01,2013-06-20 08:21:00,
2013-06-20 04:26:00,51.7,49.5,30.16,West,267,0.0,0.0,92,0.00,,CLR,0.00,VWS V14.01,2013-06-20 08:26:00,
2013-06-20 04:31:00,52.0,49.8,30.16,West,267,0.0,0.0,92,0.00,,CLR,0.00,VWS V14.01,2013-06-20 08:31:00,
2013-06-20 04:36:00,52.2,50.0,30.16,West,267,0.0,0.0,92,0.00,,CLR,0.00,VWS V14.01,2013-06-20 08:36:00,
2013-06-20 04:41:00,52.0,49.8,30.16,West,267,0.0,0.0,92,0.00,,CLR,0.00,VWS V14.01,2013-06-20 08:41:00,
2013-06-20 04:46:00,51.9,49.7,30.16,West,266,0.0,0.0,92,0.00,,CLR,0.00,VWS V14.01,2013-06-20 08:46:00,
2013-06-20 04:51:00,51.8,49.5,30.16,West,266,0.0,0.0,92,0.00,,CLR,0.00,VWS V14.01,2013-06-20 08:51:00,
2013-06-20 04:56:00,51.7,49.5,30.16,West,266,0.0,0.0,92,0.00,,CLR,0.00,VWS V14.01,2013-06-20 08:56:00,
2013-06-20 05:01:00,51.6,49.4,30.16,West,265,0.0,0.0,92,0.00,,CLR,0.00,VWS V14.01,2013-06-20 09:01:00,
2013-06-20 05:06:00,51.5,49.3,30.16,West,266,0.0,0.0,92,0.00,,CLR,0.00,VWS V14.01,2013-06-20 09:06:00,
2013-06-20 05:11:00,51.4,49.2,30.17,West,266,0.0,0.0,92,0.00,,CLR,0.00,VWS V14.01,2013-06-20 09:11:00,
2013-06-20 05:16:00,51.5,49.5,30.17,West,266,0.0,0.0,93,0.00,,CLR,0.00,VWS V14.01,2013-06-20 09:16:00,
2013-06-20 05:21:00,51.6,49.7,30.17,West,266,0.0,0.0,93,0.00,,CLR,0.00,VWS V14.01,2013-06-20 09:21:00,
2013-06-20 05:26:00,51.5,49.5,30.17,West,266,0.0,0.0,93,0.00,,CLR,0.00,VWS V14.01,2013-06-20 09:26:00,
2013-06-20 05:31:00,51.5,49.5,30.17,West,266,0.0,0.0,93,0.00,,CLR,0.00,VWS V14.01,2013-06-20 09:31:00,
2013-06-20 05:36:00,51.5,49.5,30.17,West,266,0.0,0.0,93,0.00,,CLR,0.00,VWS V14.01,2013-06-20 09:36:00,
2013-06-20 05:41:00,51.4,49.5,30.18,West,265,0.0,0.0,93,0.00,,CLR,0.00,VWS V14.01,2013-06-20 09:41:00,
2013-06-20 05:46:00,51.3,49.3,30.18,West,266,0.0,0.0,93,0.00,,CLR,0.00,VWS V14.01,2013-06-20 09:46:00,
2013-06-20 05:51:00,51.3,49.3,30.18,West,266,0.0,0.0,93,0.00,,CLR,0.00,VWS V14.01,2013-06-20 09:51:00,
2013-06-20 05:56:00,51.4,49.5,30.18,West,266,0.0,0.0,93,0.00,,CLR,0.00,VWS V14.01,2013-06-20 09:56:00,
2013-06-20 06:01:00,51.2,49.2,30.19,West,266,0.0,0.0,93,0.00,,CLR,0.00,VWS V14.01,2013-06-20 10:01:00,
2013-06-20 06:06:00,51.2,49.2,30.19,West,266,0.0,0.0,93,0.00,,CLR,0.00,VWS V14.01,2013-06-20 10:06:00,
2013-06-20 06:11:00,51.4,49.5,30.19,West,266,0.0,0.0,93,0.00,,CLR,0.00,VWS V14.01,2013-06-20 10:11:00,
2013-06-20 06:16:00,51.5,49.5,30.19,West,266,0.0,0.0,93,0.00,,CLR,0.00,VWS V14.01,2013-06-20 10:16:00,
2013-06-20 06:21:00,51.8,49.8,30.19,West,266,0.0,0.0,93,0.00,,CLR,0.00,VWS V14.01,2013-06-20 10:21:00,
2013-06-20 06:26:00,52.4,50.4,30.19,West,266,0.0,0.0,93,0.00,,CLR,0.00,VWS V14.01,2013-06-20 10:26:00,
2013-06-20 06:31:00,53.0,51.0,30.19,West,266,0.0,0.0,93,0.00,,CLR,0.00,VWS V14.01,2013-06-20 10:31:00,
2013-06-20 06:36:00,53.1,51.1,30.19,West,266,0.0,0.0,93,0.00,,CLR,0.00,VWS V14.01,2013-06-20 10:36:00,
2013-06-20 06:40:00,53.8,51.8,30.20,West,266,0.0,0.0,93,0.00,,CLR,0.00,VWS V14.01,2013-06-20 10:40:00,
2013-06-20 06:45:00,54.0,51.7,30.20,West,266,0.0,0.0,92,0.00,,CLR,0.00,VWS V14.01,2013-06-20 10:45:00,
2013-06-20 06:50:00,54.7,52.4,30.20,West,266,0.0,0.0,92,0.00,,CLR,0.00,VWS V14.01,2013-06-20 10:50:00,
2013-06-20 06:55:00,54.9,52.6,30.20,West,266,0.0,0.0,92,0.00,,CLR,0.00,VWS V14.01,2013-06-20 10:55:00,
2013-06-20 07:00:00,55.3,53.0,30.21,West,266,0.0,0.0,92,0.00,,CLR,0.00,VWS V14.01,2013-06-20 11:00:00,
2013-06-20 07:05:00,55.3,53.0,30.20,West,266,0.0,0.0,92,0.00,,CLR,0.00,VWS V14.01,2013-06-20 11:05:00,
2013-06-20 07:10:00,55.5,53.2,30.20,West,266,0.0,0.0,92,0.00,,CLR,0.00,VWS V14.01,2013-06-20 11:10:00,
2013-06-20 07:15:00,55.7,53.4,30.20,West,265,0.0,0.0,92,0.00,,CLR,0.00,VWS V14.01,2013-06-20 11:15:00,
2013-06-20 07:20:00,55.9,53.6,30.20,West,266,0.0,0.0,92,0.00,,CLR,0.00,VWS V14.01,2013-06-20 11:20:00,
2013-06-20 07:25:00,56.2,53.9,30.21,West,266,0.0,0.0,92,0.00,,CLR,0.00,VWS V14.01,2013-06-20 11:25:00,
2013-06-20 07:30:00,56.6,54.0,30.21,West,265,0.0,0.0,91,0.00,,CLR,0.00,VWS V14.01,2013-06-20 11:30:00,
2013-06-20 07:35:00,57.3,54.7,30.21,West,266,0.0,0.0,91,0.00,,CLR,0.00,VWS V14.01,2013-06-20 11:35:00,
2013-06-20 07:40:00,58.0,55.1,30.21,West,266,0.0,0.0,90,0.00,,CLR,0.00,VWS V14.01,2013-06-20 11:40:00,
2013-06-20 07:45:00,58.5,55.3,30.21,West,266,0.0,0.0,89,0.00,,CLR,0.00,VWS V14.01,2013-06-20 11:45:00,
2013-06-20 07:50:00,59.1,55.9,30.21,East,84,0.0,1.0,89,0.00,,CLR,0.00,VWS V14.01,2013-06-20 11:50:00,
2013-06-20 07:55:00,59.4,55.8,30.21,East,96,0.0,1.0,88,0.00,,CLR,0.00,VWS V14.01,2013-06-20 11:55:00,
2013-06-20 08:00:00,59.7,55.8,30.21,ESE,112,0.0,1.0,87,0.00,,CLR,0.00,VWS V14.01,2013-06-20 12:00:00,
2013-06-20 08:05:00,60.1,56.2,30.21,ESE,112,0.0,0.0,87,0.00,,CLR,0.00,VWS V14.01,2013-06-20 12:05:00,
2013-06-20 08:10:00,60.5,56.3,30.21,SE,125,0.0,0.0,86,0.00,,CLR,0.00,VWS V14.01,2013-06-20 12:10:00,
2013-06-20 08:15:00,60.7,56.2,30.21,SE,127,0.0,0.0,85,0.00,,CLR,0.00,VWS V14.01,2013-06-20 12:15:00,
2013-06-20 08:20:00,61.5,57.0,30.21,SE,141,0.0,0.0,85,0.00,,CLR,0.00,VWS V14.01,2013-06-20 12:20:00,
2013-06-20 08:25:00,62.6,57.4,30.21,SE,141,0.0,0.0,83,0.00,,CLR,0.00,VWS V14.01,2013-06-20 12:25:00,
2013-06-20 08:30:00,63.0,57.1,30.21,SE,131,0.0,2.0,81,0.00,,CLR,0.00,VWS V14.01,2013-06-20 12:30:00,
2013-06-20 08:35:00,63.3,57.0,30.21,SE,141,0.0,2.0,80,0.00,,CLR,0.00,VWS V14.01,2013-06-20 12:35:00,
2013-06-20 08:40:00,63.4,57.1,30.21,SE,133,0.0,2.0,80,0.00,,CLR,0.00,VWS V14.01,2013-06-20 12:40:00,
2013-06-20 08:45:00,63.5,56.5,30.21,SSE,152,0.0,2.0,78,0.00,,CLR,0.00,VWS V14.01,2013-06-20 12:45:00,
2013-06-20 08:50:00,63.9,56.2,30.21,SE,132,1.0,2.0,76,0.00,,CLR,0.00,VWS V14.01,2013-06-20 12:50:00,
2013-06-20 08:55:00,64.0,55.6,30.22,SSE,160,0.0,2.0,74,0.00,,CLR,0.00,VWS V14.01,2013-06-20 12:55:00,
2013-06-20 09:00:00,64.5,55.3,30.22,SSE,155,0.0,2.0,72,0.00,,CLR,0.00,VWS V14.01,2013-06-20 13:00:00,
2013-06-20 09:05:00,65.1,55.9,30.22,WSW,241,0.0,1.0,72,0.00,,CLR,0.00,VWS V14.01,2013-06-20 13:05:00,
2013-06-20 09:10:00,65.7,55.7,30.22,SE,135,0.0,2.0,70,0.00,,CLR,0.00,VWS V14.01,2013-06-20 13:10:00,
2013-06-20 09:15:00,66.5,56.8,30.22,ESE,121,0.0,2.0,71,0.00,,CLR,0.00,VWS V14.01,2013-06-20 13:15:00,
2013-06-20 09:20:00,67.2,56.7,30.21,SE,139,1.0,2.0,69,0.00,,CLR,0.00,VWS V14.01,2013-06-20 13:20:00,
2013-06-20 09:25:00,67.8,57.3,30.21,SSE,150,0.0,3.0,69,0.00,,CLR,0.00,VWS V14.01,2013-06-20 13:25:00,
2013-06-20 09:30:00,67.9,56.1,30.21,North,352,0.0,3.0,66,0.00,,CLR,0.00,VWS V14.01,2013-06-20 13:30:00,
2013-06-20 09:35:00,68.6,57.6,30.21,SE,139,0.0,2.0,68,0.00,,CLR,0.00,VWS V14.01,2013-06-20 13:35:00,
2013-06-20 09:40:00,68.9,56.2,30.21,SE,135,1.0,3.0,64,0.00,,CLR,0.00,VWS V14.01,2013-06-20 13:40:00,
2013-06-20 09:45:00,69.4,58.0,30.22,SSW,199,0.0,3.0,67,0.00,,CLR,0.00,VWS V14.01,2013-06-20 13:45:00,
2013-06-20 09:50:00,70.3,57.6,30.21,SW,228,0.0,2.0,64,0.00,,CLR,0.00,VWS V14.01,2013-06-20 13:50:00,
2013-06-20 09:55:00,71.1,58.8,30.21,SE,134,2.0,2.0,65,0.00,,CLR,0.00,VWS V14.01,2013-06-20 13:55:00,
2013-06-20 10:00:00,71.1,57.9,30.21,SSE,154,1.0,3.0,63,0.00,,CLR,0.00,VWS V14.01,2013-06-20 14:00:00,
2013-06-20 10:05:00,71.8,58.5,30.21,ESE,121,0.0,2.0,63,0.00,,CLR,0.00,VWS V14.01,2013-06-20 14:05:00,
2013-06-20 10:10:00,72.2,58.0,30.21,SSW,197,0.0,3.0,61,0.00,,CLR,0.00,VWS V14.01,2013-06-20 14:10:00,
2013-06-20 10:15:00,72.6,58.4,30.21,SSE,161,0.0,3.0,61,0.00,,CLR,0.00,VWS V14.01,2013-06-20 14:15:00,
2013-06-20 10:20:00,72.9,59.1,30.21,NNW,332,4.0,4.0,62,0.00,,CLR,0.00,VWS V14.01,2013-06-20 14:20:00,
2013-06-20 10:25:00,73.2,58.0,30.22,ESE,122,1.0,4.0,59,0.00,,CLR,0.00,VWS V14.01,2013-06-20 14:25:00,
2013-06-20 10:30:00,73.3,59.0,30.22,West,273,2.0,4.0,61,0.00,,CLR,0.00,VWS V14.01,2013-06-20 14:30:00,
2013-06-20 10:35:00,73.5,58.3,30.22,West,267,1.0,4.0,59,0.00,,CLR,0.00,VWS V14.01,2013-06-20 14:35:00,
2013-06-20 10:40:00,73.5,57.3,30.22,NW,309,1.0,4.0,57,0.00,,CLR,0.00,VWS V14.01,2013-06-20 14:40:00,
2013-06-20 10:45:00,73.5,58.3,30.22,SSW,197,0.0,4.0,59,0.00,,CLR,0.00,VWS V14.01,2013-06-20 14:45:00,
2013-06-20 10:50:00,73.4,58.7,30.22,WSW,256,1.0,4.0,60,0.00,,CLR,0.00,VWS V14.01,2013-06-20 14:50:00,
2013-06-20 10:55:00,73.4,57.7,30.22,WNW,297,1.0,4.0,58,0.00,,CLR,0.00,VWS V14.01,2013-06-20 14:55:00,
2013-06-20 11:00:00,73.5,57.8,30.22,ENE,71,1.0,5.0,58,0.00,,CLR,0.00,VWS V14.01,2013-06-20 15:00:00,
2013-06-20 11:05:00,73.6,58.9,30.22,North,11,0.0,6.0,60,0.00,,CLR,0.00,VWS V14.01,2013-06-20 15:05:00,
2013-06-20 11:10:00,74.2,57.5,30.22,WSW,255,1.0,6.0,56,0.00,,CLR,0.00,VWS V14.01,2013-06-20 15:10:00,
2013-06-20 11:15:00,74.2,57.5,30.22,ENE,71,0.0,6.0,56,0.00,,CLR,0.00,VWS V14.01,2013-06-20 15:15:00,
2013-06-20 11:20:00,75.0,59.7,30.22,SSE,159,0.0,1.0,59,0.00,,CLR,0.00,VWS V14.01,2013-06-20 15:20:00,
2013-06-20 11:25:00,75.6,58.8,30.22,West,264,2.0,3.0,56,0.00,,CLR,0.00,VWS V14.01,2013-06-20 15:25:00,
2013-06-20 11:30:00,75.4,58.6,30.22,SE,146,1.0,4.0,56,0.00,,CLR,0.00,VWS V14.01,2013-06-20 15:30:00,
2013-06-20 11:35:00,75.8,59.0,30.22,SSW,194,0.0,3.0,56,0.00,,CLR,0.00,VWS V14.01,2013-06-20 15:35:00,
2013-06-20 11:40:00,75.8,58.0,30.22,WNW,301,1.0,4.0,54,0.00,,CLR,0.00,VWS V14.01,2013-06-20 15:40:00,
2013-06-20 11:45:00,75.8,58.5,30.22,West,278,0.0,4.0,55,0.00,,CLR,0.00,VWS V14.01,2013-06-20 15:45:00,
2013-06-20 11:50:00,76.6,58.7,30.22,West,272,1.0,2.0,54,0.00,,CLR,0.00,VWS V14.01,2013-06-20 15:50:00,
2013-06-20 11:55:00,76.6,56.6,30.22,West,266,2.0,3.0,50,0.00,,CLR,0.00,VWS V14.01,2013-06-20 15:55:00,
2013-06-20 12:00:00,76.3,56.9,30.22,SE,144,1.0,4.0,51,0.00,,CLR,0.00,VWS V14.01,2013-06-20 16:00:00,
2013-06-20 12:05:00,76.6,56.6,30.22,West,281,0.0,5.0,50,0.00,,CLR,0.00,VWS V14.01,2013-06-20 16:05:00,
2013-06-20 12:10:00,76.9,56.9,30.22,South,184,2.0,5.0,50,0.00,,CLR,0.00,VWS V14.01,2013-06-20 16:10:00,
2013-06-20 12:15:00,77.0,55.8,30.22,East,94,2.0,5.0,48,0.00,,CLR,0.00,VWS V14.01,2013-06-20 16:15:00,
2013-06-20 12:20:00,77.1,54.2,30.21,ESE,111,2.0,4.0,45,0.00,,CLR,0.00,VWS V14.01,2013-06-20 16:20:00,
2013-06-20 12:25:00,77.5,55.7,30.21,NE,37,2.0,4.0,47,0.00,,CLR,0.00,VWS V14.01,2013-06-20 16:25:00,
2013-06-20 12:30:00,78.2,52.6,30.21,West,275,1.0,5.0,41,0.00,,CLR,0.00,VWS V14.01,2013-06-20 16:30:00,
2013-06-20 12:35:00,77.7,53.5,30.21,East,93,2.0,6.0,43,0.00,,CLR,0.00,VWS V14.01,2013-06-20 16:35:00,
2013-06-20 12:40:00,77.6,54.6,30.21,SSW,194,0.0,6.0,45,0.00,,CLR,0.00,VWS V14.01,2013-06-20 16:40:00,
2013-06-20 12:45:00,77.1,52.9,30.21,SE,146,0.0,6.0,43,0.00,,CLR,0.00,VWS V14.01,2013-06-20 16:45:00,
2013-06-20 12:50:00,77.3,56.1,30.21,East,100,1.0,3.0,48,0.00,,CLR,0.00,VWS V14.01,2013-06-20 16:50:00,
2013-06-20 12:55:00,77.9,56.7,30.21,SSW,198,1.0,3.0,48,0.00,,CLR,0.00,VWS V14.01,2013-06-20 16:55:00,
2013-06-20 13:00:00,77.9,56.1,30.21,WSW,246,0.0,3.0,47,0.00,,CLR,0.00,VWS V14.01,2013-06-20 17:00:00,
2013-06-20 13:05:00,77.4,53.8,30.21,North,349,0.0,4.0,44,0.00,,FEW065,0.00,VWS V14.01,2013-06-20 17:05:00,
2013-06-20 13:10:00,77.5,55.1,30.21,ESE,111,1.0,4.0,46,0.00,,FEW065,0.00,VWS V14.01,2013-06-20 17:10:00,
2013-06-20 13:15:00,77.6,56.4,30.21,WSW,239,0.0,4.0,48,0.00,,FEW065,0.00,VWS V14.01,2013-06-20 17:15:00,
2013-06-20 13:20:00,78.6,57.9,30.21,ESE,120,0.0,4.0,49,0.00,,FEW065,0.00,VWS V14.01,2013-06-20 17:20:00,
2013-06-20 13:25:00,78.9,56.4,30.21,ESE,117,0.0,4.0,46,0.00,,FEW065,0.00,VWS V14.01,2013-06-20 17:25:00,
2013-06-20 13:30:00,77.9,56.1,30.21,East,94,0.0,4.0,47,0.00,,FEW065,0.00,VWS V14.01,2013-06-20 17:30:00,
2013-06-20 13:35:00,77.8,56.0,30.21,West,281,0.0,0.0,47,0.00,,FEW065,0.00,VWS V14.01,2013-06-20 17:35:00,
2013-06-20 13:40:00,78.1,55.7,30.21,SE,129,0.0,0.0,46,0.00,,FEW065,0.00,VWS V14.01,2013-06-20 17:40:00,
2013-06-20 13:45:00,78.3,55.2,30.21,ESE,109,0.0,3.0,45,0.00,,FEW065,0.00,VWS V14.01,2013-06-20 17:45:00,
2013-06-20 13:50:00,78.2,55.1,30.21,North,358,0.0,1.0,45,0.00,,FEW065,0.00,VWS V14.01,2013-06-20 17:50:00,
2013-06-20 13:55:00,78.1,56.2,30.20,East,96,0.0,1.0,47,0.00,,FEW065,0.00,VWS V14.01,2013-06-20 17:55:00,
2013-06-20 14:00:00,78.4,55.3,30.20,SE,135,0.0,1.0,45,0.00,,FEW065,0.00,VWS V14.01,2013-06-20 18:00:00,
2013-06-20 14:05:00,78.3,55.8,30.20,SE,136,0.0,1.0,46,0.00,,CLR,0.00,VWS V14.01,2013-06-20 18:05:00,
2013-06-20 14:10:00,77.4,54.4,30.19,SE,124,0.0,2.0,45,0.00,,CLR,0.00,VWS V14.01,2013-06-20 18:10:00,
2013-06-20 14:15:00,77.9,56.1,30.19,West,262,0.0,2.0,47,0.00,,CLR,0.00,VWS V14.01,2013-06-20 18:15:00,
2013-06-20 14:20:00,78.4,54.7,30.19,South,191,0.0,1.0,44,0.00,,CLR,0.00,VWS V14.01,2013-06-20 18:20:00,
2013-06-20 14:25:00,78.5,54.8,30.19,West,281,4.0,5.0,44,0.00,,CLR,0.00,VWS V14.01,2013-06-20 18:25:00,
2013-06-20 14:30:00,78.7,56.8,30.19,SW,228,0.0,5.0,47,0.00,,CLR,0.00,VWS V14.01,2013-06-20 18:30:00,
2013-06-20 14:35:00,78.6,56.1,30.19,NNE,12,0.0,3.0,46,0.00,,CLR,0.00,VWS V14.01,2013-06-20 18:35:00,
2013-06-20 14:40:00,78.0,55.0,30.19,North,356,0.0,3.0,45,0.00,,CLR,0.00,VWS V14.01,2013-06-20 18:40:00,
2013-06-20 14:45:00,77.4,55.6,30.19,West,262,0.0,3.0,47,0.00,,CLR,0.00,VWS V14.01,2013-06-20 18:45:00,
2013-06-20 14:50:00,77.5,56.9,30.19,WSW,237,0.0,3.0,49,0.00,,CLR,0.00,VWS V14.01,2013-06-20 18:50:00,
2013-06-20 14:55:00,77.2,56.0,30.19,East,86,0.0,3.0,48,0.00,,CLR,0.00,VWS V14.01,2013-06-20 18:55:00,
2013-06-20 15:00:00,77.2,58.2,30.19,East,98,0.0,3.0,52,0.00,,CLR,0.00,VWS V14.01,2013-06-20 19:00:00,
2013-06-20 15:05:00,76.8,56.8,30.19,NW,315,0.0,1.0,50,0.00,,CLR,0.00,VWS V14.01,2013-06-20 19:05:00,
2013-06-20 15:10:00,77.0,58.6,30.19,SSE,150,0.0,1.0,53,0.00,,CLR,0.00,VWS V14.01,2013-06-20 19:10:00,
2013-06-20 15:15:00,77.2,58.8,30.19,SSE,155,0.0,1.0,53,0.00,,CLR,0.00,VWS V14.01,2013-06-20 19:15:00,
2013-06-20 15:20:00,77.1,57.0,30.19,NW,316,0.0,1.0,50,0.00,,CLR,0.00,VWS V14.01,2013-06-20 19:20:00,
2013-06-20 15:25:00,76.6,57.1,30.19,North,4,0.0,1.0,51,0.00,,CLR,0.00,VWS V14.01,2013-06-20 19:25:00,
2013-06-20 15:30:00,76.4,58.0,30.19,West,267,0.0,1.0,53,0.00,,CLR,0.00,VWS V14.01,2013-06-20 19:30:00,
2013-06-20 15:35:00,76.0,58.2,30.19,WNW,301,0.0,3.0,54,0.00,,CLR,0.00,VWS V14.01,2013-06-20 19:35:00,
2013-06-20 15:40:00,76.7,60.3,30.19,SW,234,0.0,4.0,57,0.00,,CLR,0.00,VWS V14.01,2013-06-20 19:40:00,
2013-06-20 15:45:00,77.7,58.7,30.19,South,169,0.0,4.0,52,0.00,,CLR,0.00,VWS V14.01,2013-06-20 19:45:00,
2013-06-20 15:50:00,78.2,60.2,30.19,NW,317,3.0,3.0,54,0.00,,CLR,0.00,VWS V14.01,2013-06-20 19:50:00,
2013-06-20 15:55:00,78.1,58.5,30.19,North,354,1.0,4.0,51,0.00,,CLR,0.00,VWS V14.01,2013-06-20 19:55:00,
2013-06-20 16:00:00,77.3,58.8,30.19,West,269,0.0,4.0,53,0.00,,CLR,0.00,VWS V14.01,2013-06-20 20:00:00,
2013-06-20 16:05:00,76.8,57.3,30.19,WNW,283,1.0,3.0,51,0.00,,FEW070,0.00,VWS V14.01,2013-06-20 20:05:00,
2013-06-20 16:10:00,76.1,58.8,30.19,SSW,198,1.0,3.0,55,0.00,,FEW070,0.00,VWS V14.01,2013-06-20 20:10:00,
2013-06-20 16:15:00,76.5,59.2,30.19,SSW,211,1.0,3.0,55,0.00,,FEW070,0.00,VWS V14.01,2013-06-20 20:15:00,
2013-06-20 16:20:00,76.6,58.2,30.19,SE,146,0.0,3.0,53,0.00,,FEW070,0.00,VWS V14.01,2013-06-20 20:20:00,
2013-06-20 16:25:00,77.6,59.7,30.19,SSE,167,0.0,3.0,54,0.00,,FEW070,0.00,VWS V14.01,2013-06-20 20:25:00,
2013-06-20 16:30:00,78.7,58.0,30.19,West,275,3.0,4.0,49,0.00,,FEW070,0.00,VWS V14.01,2013-06-20 20:30:00,
2013-06-20 16:35:00,78.8,58.6,30.19,North,1,0.0,4.0,50,0.00,,FEW070,0.00,VWS V14.01,2013-06-20 20:35:00,
2013-06-20 16:40:00,78.9,58.1,30.18,SW,235,0.0,4.0,49,0.00,,FEW070,0.00,VWS V14.01,2013-06-20 20:40:00,
2013-06-20 16:45:00,79.2,59.5,30.18,WNW,284,0.0,4.0,51,0.00,,FEW070,0.00,VWS V14.01,2013-06-20 20:45:00,
2013-06-20 16:50:00,79.6,58.8,30.18,WNW,285,1.0,1.0,49,0.00,,FEW070,0.00,VWS V14.01,2013-06-20 20:50:00,
2013-06-20 16:55:00,80.0,59.1,30.18,NW,309,0.0,1.0,49,0.00,,FEW070,0.00,VWS V14.01,2013-06-20 20:55:00,
2013-06-20 17:00:00,79.8,57.2,30.18,West,276,0.0,3.0,46,0.00,,FEW070,0.00,VWS V14.01,2013-06-20 21:00:00,
2013-06-20 17:05:00,79.4,57.4,30.18,SW,226,0.0,1.0,47,0.00,,FEW070,0.00,VWS V14.01,2013-06-20 21:05:00,
2013-06-20 17:10:00,78.5,58.3,30.18,SE,132,0.0,3.0,50,0.00,,CLR,0.00,VWS V14.01,2013-06-20 21:10:00,
2013-06-20 17:15:00,78.4,58.8,30.18,SSE,161,0.0,3.0,51,0.00,,CLR,0.00,VWS V14.01,2013-06-20 21:15:00,
2013-06-20 17:20:00,79.0,59.3,30.18,NE,42,0.0,0.0,51,0.00,,CLR,0.00,VWS V14.01,2013-06-20 21:20:00,
2013-06-20 17:25:00,78.5,58.3,30.18,East,88,0.0,0.0,50,0.00,,CLR,0.00,VWS V14.01,2013-06-20 21:25:00,
2013-06-20 17:30:00,78.3,57.6,30.18,SW,224,0.0,0.0,49,0.00,,CLR,0.00,VWS V14.01,2013-06-20 21:30:00,
2013-06-20 17:35:00,78.5,59.4,30.18,ESE,115,0.0,0.0,52,0.00,,CLR,0.00,VWS V14.01,2013-06-20 21:35:00,
2013-06-20 17:40:00,78.7,59.6,30.18,SSE,152,0.0,0.0,52,0.00,,CLR,0.00,VWS V14.01,2013-06-20 21:40:00,
2013-06-20 17:45:00,79.2,60.1,30.18,West,278,0.0,0.0,52,0.00,,CLR,0.00,VWS V14.01,2013-06-20 21:45:00,
2013-06-20 17:50:00,79.1,58.9,30.18,NNE,33,0.0,0.0,50,0.00,,CLR,0.00,VWS V14.01,2013-06-20 21:50:00,
2013-06-20 17:55:00,78.9,59.2,30.18,NW,314,2.0,2.0,51,0.00,,CLR,0.00,VWS V14.01,2013-06-20 21:55:00,
2013-06-20 18:00:00,78.5,58.9,30.18,SW,226,0.0,2.0,51,0.00,,CLR,0.00,VWS V14.01,2013-06-20 22:00:00,
2013-06-20 18:05:00,78.1,58.5,30.18,SE,141,0.0,0.0,51,0.00,,CLR,0.00,VWS V14.01,2013-06-20 22:05:00,
2013-06-20 18:10:00,78.0,57.9,30.18,WNW,285,0.0,4.0,50,0.00,,CLR,0.00,VWS V14.01,2013-06-20 22:10:00,
2013-06-20 18:15:00,77.6,58.1,30.18,SE,126,0.0,4.0,51,0.00,,CLR,0.00,VWS V14.01,2013-06-20 22:15:00,
2013-06-20 18:20:00,77.6,59.1,30.18,SE,131,0.0,0.0,53,0.00,,CLR,0.00,VWS V14.01,2013-06-20 22:20:00,
2013-06-20 18:25:00,78.0,58.4,30.18,NW,309,0.0,1.0,51,0.00,,CLR,0.00,VWS V14.01,2013-06-20 22:25:00,
2013-06-20 18:30:00,77.7,59.8,30.18,NNW,346,0.0,3.0,54,0.00,,CLR,0.00,VWS V14.01,2013-06-20 22:30:00,
2013-06-20 18:35:00,77.5,58.5,30.18,SW,222,0.0,2.0,52,0.00,,CLR,0.00,VWS V14.01,2013-06-20 22:35:00,
2013-06-20 18:40:00,77.0,58.6,30.18,SSW,193,0.0,2.0,53,0.00,,CLR,0.00,VWS V14.01,2013-06-20 22:40:00,
2013-06-20 18:45:00,76.8,57.9,30.18,WNW,288,0.0,2.0,52,0.00,,CLR,0.00,VWS V14.01,2013-06-20 22:45:00,
2013-06-20 18:50:00,76.6,58.2,30.18,SW,226,0.0,0.0,53,0.00,,CLR,0.00,VWS V14.01,2013-06-20 22:50:00,
2013-06-20 18:55:00,76.7,58.3,30.18,West,266,0.0,1.0,53,0.00,,CLR,0.00,VWS V14.01,2013-06-20 22:55:00,
2013-06-20 19:00:00,76.8,58.4,30.18,West,278,0.0,1.0,53,0.00,,CLR,0.00,VWS V14.01,2013-06-20 23:00:00,
2013-06-20 19:05:00,76.9,59.0,30.18,WNW,291,0.0,1.0,54,0.00,,CLR,0.00,VWS V14.01,2013-06-20 23:05:00,
2013-06-20 19:10:00,76.7,58.8,30.18,NE,46,0.0,1.0,54,0.00,,CLR,0.00,VWS V14.01,2013-06-20 23:10:00,
2013-06-20 19:15:00,76.3,59.0,30.18,SSW,213,0.0,1.0,55,0.00,,CLR,0.00,VWS V14.01,2013-06-20 23:15:00,
2013-06-20 19:20:00,75.5,58.7,30.18,West,269,0.0,0.0,56,0.00,,CLR,0.00,VWS V14.01,2013-06-20 23:20:00,
2013-06-20 19:25:00,74.6,58.4,30.19,SW,217,0.0,5.0,57,0.00,,CLR,0.00,VWS V14.01,2013-06-20 23:25:00,
2013-06-20 19:30:00,73.9,57.7,30.19,WSW,243,0.0,5.0,57,0.00,,CLR,0.00,VWS V14.01,2013-06-20 23:30:00,
2013-06-20 19:35:00,73.4,58.2,30.19,West,271,0.0,1.0,59,0.00,,CLR,0.00,VWS V14.01,2013-06-20 23:35:00,
2013-06-20 19:40:00,73.0,58.3,30.19,WSW,253,0.0,1.0,60,0.00,,CLR,0.00,VWS V14.01,2013-06-20 23:40:00,
2013-06-20 19:45:00,72.7,58.5,30.19,WSW,246,0.0,1.0,61,0.00,,CLR,0.00,VWS V14.01,2013-06-20 23:45:00,
2013-06-20 19:50:00,72.4,58.2,30.19,WSW,256,0.0,0.0,61,0.00,,CLR,0.00,VWS V14.01,2013-06-20 23:50:00,
2013-06-20 19:54:00,72.2,58.5,30.19,WSW,256,0.0,0.0,62,0.00,,CLR,0.00,VWS V14.01,2013-06-20 23:54:00,
2013-06-20 19:59:00,71.9,58.2,30.19,NNE,14,0.0,0.0,62,0.00,,CLR,0.00,VWS V14.01,2013-06-20 23:59:00,
2013-06-20 20:04:00,71.6,57.9,30.19,SW,232,0.0,0.0,62,0.00,,CLR,0.00,VWS V14.01,2013-06-21 00:04:00,
2013-06-20 20:09:00,71.4,58.2,30.19,NNW,333,0.0,0.0,63,0.00,,CLR,0.00,VWS V14.01,2013-06-21 00:09:00,
2013-06-20 20:14:00,71.1,58.3,30.18,NNW,332,0.0,0.0,64,0.00,,CLR,0.00,VWS V14.01,2013-06-21 00:14:00,
2013-06-20 20:19:00,70.9,58.6,30.18,NW,317,0.0,0.0,65,0.00,,CLR,0.00,VWS V14.01,2013-06-21 00:19:00,
2013-06-20 20:24:00,70.6,58.3,30.18,NW,317,0.0,0.0,65,0.00,,CLR,0.00,VWS V14.01,2013-06-21 00:24:00,
2013-06-20 20:29:00,70.3,58.4,30.18,NNW,333,0.0,0.0,66,0.00,,CLR,0.00,VWS V14.01,2013-06-21 00:29:00,
2013-06-20 20:34:00,69.9,58.5,30.18,NNW,333,0.0,0.0,67,0.00,,CLR,0.00,VWS V14.01,2013-06-21 00:34:00,
2013-06-20 20:39:00,69.6,58.2,30.18,NNW,332,0.0,0.0,67,0.00,,CLR,0.00,VWS V14.01,2013-06-21 00:39:00,
2013-06-20 20:44:00,69.4,58.4,30.18,NNW,333,0.0,0.0,68,0.00,,CLR,0.00,VWS V14.01,2013-06-21 00:44:00,
2013-06-20 20:49:00,69.1,58.1,30.18,NNW,333,0.0,0.0,68,0.00,,CLR,0.00,VWS V14.01,2013-06-21 00:49:00,
2013-06-20 20:54:00,68.9,58.3,30.18,NNW,333,0.0,0.0,69,0.00,,CLR,0.00,VWS V14.01,2013-06-21 00:54:00,
2013-06-20 20:59:00,68.6,58.4,30.18,NNW,333,0.0,0.0,70,0.00,,CLR,0.00,VWS V14.01,2013-06-21 00:59:00,
2013-06-20 21:04:00,68.5,58.7,30.18,NNW,333,0.0,0.0,71,0.00,,CLR,0.00,VWS V14.01,2013-06-21 01:04:00,
2013-06-20 21:09:00,68.3,58.9,30.18,NNW,328,0.0,0.0,72,0.00,,CLR,0.00,VWS V14.01,2013-06-21 01:09:00,
2013-06-20 21:14:00,68.1,58.7,30.18,NNW,330,0.0,0.0,72,0.00,,CLR,0.00,VWS V14.01,2013-06-21 01:14:00,
2013-06-20 21:19:00,67.9,58.9,30.19,NNW,330,0.0,0.0,73,0.00,,CLR,0.00,VWS V14.01,2013-06-21 01:19:00,
2013-06-20 21:24:00,67.6,59.0,30.19,NE,41,0.0,0.0,74,0.00,,CLR,0.00,VWS V14.01,2013-06-21 01:24:00,
2013-06-20 21:29:00,67.3,58.7,30.19,NE,41,0.0,0.0,74,0.00,,CLR,0.00,VWS V14.01,2013-06-21 01:29:00,
2013-06-20 21:34:00,67.0,58.8,30.19,NE,41,0.0,0.0,75,0.00,,CLR,0.00,VWS V14.01,2013-06-21 01:34:00,
2013-06-20 21:39:00,66.8,58.6,30.19,NE,41,0.0,0.0,75,0.00,,CLR,0.00,VWS V14.01,2013-06-21 01:39:00,
2013-06-20 21:44:00,66.7,58.5,30.19,NE,41,0.0,0.0,75,0.00,,CLR,0.00,VWS V14.01,2013-06-21 01:44:00,
2013-06-20 21:49:00,66.6,58.8,30.19,NE,41,0.0,0.0,76,0.00,,CLR,0.00,VWS V14.01,2013-06-21 01:49:00,
2013-06-20 21:54:00,66.5,58.7,30.19,NE,41,0.0,0.0,76,0.00,,CLR,0.00,VWS V14.01,2013-06-21 01:54:00,
2013-06-20 21:59:00,66.4,58.2,30.19,NW,309,0.0,0.0,75,0.00,,CLR,0.00,VWS V14.01,2013-06-21 01:59:00,
2013-06-20 22:04:00,66.4,57.9,30.19,NW,309,0.0,0.0,74,0.00,,CLR,0.00,VWS V14.01,2013-06-21 02:04:00,
2013-06-20 22:09:00,66.3,57.8,30.19,NW,309,0.0,0.0,74,0.00,,CLR,0.00,VWS V14.01,2013-06-21 02:09:00,
2013-06-20 22:14:00,66.2,58.0,30.20,NW,314,0.0,0.0,75,0.00,,CLR,0.00,VWS V14.01,2013-06-21 02:14:00,
2013-06-20 22:19:00,66.1,58.0,30.20,NW,311,0.0,0.0,75,0.00,,CLR,0.00,VWS V14.01,2013-06-21 02:19:00,
2013-06-20 22:24:00,66.0,57.9,30.20,NW,304,0.0,0.0,75,0.00,,CLR,0.00,VWS V14.01,2013-06-21 02:24:00,
2013-06-20 22:29:00,66.2,57.7,30.20,WNW,287,0.0,0.0,74,0.00,,CLR,0.00,VWS V14.01,2013-06-21 02:29:00,
2013-06-20 22:34:00,66.2,57.7,30.20,West,274,0.0,2.0,74,0.00,,CLR,0.00,VWS V14.01,2013-06-21 02:34:00,
2013-06-20 22:39:00,66.0,57.9,30.20,WNW,294,0.0,2.0,75,0.00,,CLR,0.00,VWS V14.01,2013-06-21 02:39:00,
2013-06-20 22:44:00,66.0,57.9,30.20,West,281,0.0,2.0,75,0.00,,CLR,0.00,VWS V14.01,2013-06-21 02:44:00,
2013-06-20 22:49:00,66.0,57.9,30.20,West,278,0.0,2.0,75,0.00,,CLR,0.00,VWS V14.01,2013-06-21 02:49:00,
2013-06-20 22:54:00,65.8,57.7,30.21,West,278,0.0,2.0,75,0.00,,CLR,0.00,VWS V14.01,2013-06-21 02:54:00,
2013-06-20 22:59:00,65.5,57.4,30.20,West,278,0.0,2.0,75,0.00,,CLR,0.00,VWS V14.01,2013-06-21 02:59:00,
2013-06-20 23:04:00,65.2,57.5,30.20,West,278,0.0,0.0,76,0.00,,CLR,0.00,VWS V14.01,2013-06-21 03:04:00,
2013-06-20 23:09:00,64.9,57.2,30.20,NNW,342,0.0,0.0,76,0.00,,CLR,0.00,VWS V14.01,2013-06-21 03:09:00,
2013-06-20 23:14:00,64.9,57.5,30.20,North,349,0.0,0.0,77,0.00,,CLR,0.00,VWS V14.01,2013-06-21 03:14:00,
2013-06-20 23:19:00,64.8,57.4,30.20,North,1,0.0,0.0,77,0.00,,CLR,0.00,VWS V14.01,2013-06-21 03:19:00,
2013-06-20 23:24:00,64.7,57.3,30.20,NNE,16,0.0,0.0,77,0.00,,CLR,0.00,VWS V14.01,2013-06-21 03:24:00,
2013-06-20 23:29:00,64.6,57.6,30.20,NNE,16,0.0,0.0,78,0.00,,CLR,0.00,VWS V14.01,2013-06-21 03:29:00,
2013-06-20 23:34:00,64.6,57.6,30.20,SE,131,0.0,3.0,78,0.00,,CLR,0.00,VWS V14.01,2013-06-21 03:34:00,
2013-06-20 23:39:00,64.6,57.6,30.21,SSW,203,0.0,3.0,78,0.00,,CLR,0.00,VWS V14.01,2013-06-21 03:39:00,
2013-06-20 23:44:00,64.6,57.2,30.21,SW,228,0.0,3.0,77,0.00,,CLR,0.00,VWS V14.01,2013-06-21 03:44:00,
2013-06-20 23:49:00,64.5,57.1,30.21,SW,228,0.0,0.0,77,0.00,,CLR,0.00,VWS V14.01,2013-06-21 03:49:00,
2013-06-20 23:54:00,64.3,57.3,30.21,SW,225,0.0,0.0,78,0.00,,CLR,0.00,VWS V14.01,2013-06-21 03:54:00,
2013-06-20 23:59:00,64.1,57.1,30.22,SW,225,0.0,0.0,78,0.00,,CLR,0.00,VWS V14.01,2013-06-21 03:59:00,